UNEE/KEJ METAR and TAF weather

Enter ICAO airport designator
Station Type Date Time Source
UNEE METAR 2019/11/18 04:00 UTC NOAA

UNEE 180400Z 18004MPS 4700 -SN SCT009 OVC021 M05/M06 Q1009 R23/491032 NOSIG RMK QFE734


Station Type Date Time Source
UNEE Decoded METAR 2019/11/18 04:00 UTC NOAA

Kemerovo, Russia (UNEE) 55-19-48N 086-04-48E
Nov 17, 2019 - 11:00 PM EST / 2019.11.18 0400 UTC
Wind: from the S (180 degrees) at 9 MPH (8 KT):0
Visibility: 2 mile(s):0
Sky conditions: overcast
Weather: light snow
Temperature: 23 F (-5 C)
Windchill: 14 F (-10 C):1
Dew Point: 21 F (-6 C)
Relative Humidity: 92%
Pressure (altimeter): 29.80 in. Hg (1009 hPa)
ob: UNEE 180400Z 18004MPS 4700 -SN SCT009 OVC021 M05/M06 Q1009 R23/491032 NOSIG RMK QFE734
cycle: 4

Station Type Date Time Source
UNEE TAF 2019/11/18 03:21 UTC NOAA

TAF UNEE 180200Z 1803/1903 18005G12MPS 3100 -SHSN BKN012CB
TEMPO 1803/1824 1200 SHSN BKN004 BKN011CB

Example: see airport list